Grande Europa — ICGE — position and weather

sailwx.info

Track history (hours):
 
Tides and Currents Weather Stations Pressure Air Temp Water Temp Dewpoint Dewpoint Depression Visibility Wind Speed Wind Dir Waves Ship Positions

Grande Europa

Last reported at 2017-Apr-30 03:54 UTC. Time now 2017-Apr-30 16:59 UTC.
Position N 57°23' E 008°39'.

Length 183 m; draft 8.3 m.

Type: Ship (hazmat cat A). MMSI: 247206000.

Date/timePositionNaut miles runAvg speedWind from/ knotsBaromVisibWave heightAir tempDewpointWater temp
2017-Apr-30 03:54N 57°23' E 008°39'816.8
2017-Apr-30 03:26N 57°28' E 008°49'716.8
2017-Apr-30 03:00N 57°34' E 008°58'816.7
2017-Apr-30 02:30N 57°40' E 009°09'816.4
2017-Apr-30 01:59N 57°46' E 009°19'815.9
2017-Apr-30 01:30N 57°52' E 009°30'1016.6
2017-Apr-30 00:55N 57°52' E 009°48'716.8
2017-Apr-30 00:30N 57°52' E 010°01'817.0
2017-Apr-30 00:00N 57°52' E 010°17'816.9
2017-Apr-29 23:30N 57°52' E 010°33'816.7
2017-Apr-29 23:00N 57°52' E 010°49'917.0
2017-Apr-29 22:30N 57°52' E 011°05'817.3
2017-Apr-29 22:00N 57°52' E 011°21'713.7
2017-Apr-29 21:30N 57°54' E 011°33'612.3
2017-Apr-29 21:00N 57°57' E 011°43'3 5.9
2017-Apr-29 20:28N 58°01' E 011°42'0 0.0
2017-Apr-29 18:52N 58°01' E 011°42'0 0.0
2017-Apr-29 18:28N 58°01' E 011°42'0 0.0
2017-Apr-29 16:22N 58°01' E 011°42'0 0.0
2017-Apr-29 15:55N 58°01' E 011°42'0 0.0
2017-Apr-29 15:16N 58°01' E 011°42'0 0.0
2017-Apr-29 14:55N 58°01' E 011°42'0 0.0
2017-Apr-29 13:55N 58°01' E 011°42'0 0.0
2017-Apr-29 12:31N 58°01' E 011°42'0 0.1
2017-Apr-29 12:28N 58°01' E 011°42'0 0.0
2017-Apr-29 11:58N 58°01' E 011°42'0 0.0
2017-Apr-29 11:28N 58°01' E 011°42'0 0.0
2017-Apr-29 10:58N 58°01' E 011°42'0 0.0
2017-Apr-29 10:11N 58°01' E 011°42'0 0.8
2017-Apr-29 10:00N 58°01' E 011°42'3 6.1
2017-Apr-29 09:30N 57°58' E 011°43'4 8.6
2017-Apr-29 09:00N 57°55' E 011°36'713.4
2017-Apr-29 08:30N 57°51' E 011°25'610.9
2017-Apr-29 07:57N 57°51' E 011°14'716.7
2017-Apr-29 07:30N 57°51' E 011°00'917.5
2017-Apr-29 07:00N 57°51' E 010°44'917.5
2017-Apr-29 06:30N 57°50' E 010°28'917.1
2017-Apr-29 05:59N 57°49' E 010°11'14514.6
2017-Apr-28 20:05N 55°59' E 007°17'217.1
2017-Apr-28 19:58N 55°57' E 007°17'817.1
2017-Apr-28 19:30N 55°49' E 007°17'917.2
2017-Apr-28 19:00N 55°41' E 007°17'917.3
2017-Apr-28 18:31N 55°32' E 007°17'815.9
2017-Apr-28 18:00N 55°27' E 007°27'917.8
2017-Apr-28 17:30N 55°23' E 007°41'917.2
2017-Apr-28 17:01N 55°20' E 007°55'816.3
2017-Apr-28 16:30N 55°22' E 008°09'612.6
2017-Apr-28 16:01N 55°27' E 008°17'5 9.7
2017-Apr-28 15:30N 55°28' E 008°25'1 1.4
2017-Apr-28 14:51N 55°28' E 008°27'0 0.0
2017-Apr-28 14:00N 55°28' E 008°27'0 0.0
2017-Apr-28 13:30N 55°28' E 008°27'0 0.0
2017-Apr-28 12:57N 55°28' E 008°27'0 0.0
2017-Apr-28 12:30N 55°28' E 008°27'0 0.0
2017-Apr-28 11:54N 55°28' E 008°27'0 0.0
2017-Apr-28 11:30N 55°28' E 008°27'0 0.0
2017-Apr-28 11:00N 55°28' E 008°27'0 0.0
2017-Apr-28 10:30N 55°28' E 008°27'0 0.0
2017-Apr-28 09:59N 55°28' E 008°27'0 0.0
2017-Apr-28 09:26N 55°28' E 008°27'0 0.0
2017-Apr-28 08:56N 55°28' E 008°27'0 0.0
2017-Apr-28 08:29N 55°28' E 008°27'0 0.0
2017-Apr-28 07:59N 55°28' E 008°27'0 0.0
2017-Apr-28 07:23N 55°28' E 008°27'0 0.0
2017-Apr-28 06:59N 55°28' E 008°27'0 0.0
2017-Apr-28 06:29N 55°28' E 008°27'0 0.0
2017-Apr-28 05:56N 55°28' E 008°27'0 0.0
2017-Apr-28 05:29N 55°28' E 008°27'0 0.0
2017-Apr-28 04:59N 55°28' E 008°27'1 1.2
2017-Apr-28 04:31N 55°27' E 008°26'2 4.9
2017-Apr-28 04:00N 55°29' E 008°23'612.8
2017-Apr-28 03:31N 55°25' E 008°14'611.2
2017-Apr-28 03:00N 55°22' E 008°05'715.0
2017-Apr-28 02:30N 55°17' E 007°55'714.4
2017-Apr-28 02:00N 55°13' E 007°46'815.3
2017-Apr-28 01:30N 55°08' E 007°36'815.2
2017-Apr-28 01:00N 55°03' E 007°26'714.9
2017-Apr-28 00:30N 54°58' E 007°16'714.8
2017-Apr-28 00:00N 54°53' E 007°06'713.5
2017-Apr-27 23:30N 54°49' E 006°56'714.7
2017-Apr-27 23:00N 54°51' E 006°44'610.8
2017-Apr-27 22:29N 54°47' E 006°37'714.0
2017-Apr-27 22:00N 54°40' E 006°35'510.1
2017-Apr-27 21:30N 54°40' E 006°26'815.2
2017-Apr-27 20:59N 54°44' E 006°14'22313.0
2017-Apr-27 03:49N 51°45' E 002°33'614.9
2017-Apr-27 03:23N 51°40' E 002°26'615.2
2017-Apr-27 03:00N 51°36' E 002°20'815.6
2017-Apr-27 02:30N 51°30' E 002°12'815.8
2017-Apr-27 02:00N 51°24' E 002°04'815.6
2017-Apr-27 01:30N 51°18' E 001°56'816.1
2017-Apr-27 01:01N 51°12' E 001°47'816.4
2017-Apr-27 00:30N 51°04' E 001°42'917.2
2017-Apr-27 00:01N 50°58' E 001°32'1019.6
2017-Apr-26 23:31N 50°50' E 001°25'918.7
2017-Apr-26 23:01N 50°41' E 001°18'1918.4
2017-Apr-26 21:58N 50°30' E 000°54'1019.0
2017-Apr-26 21:27N 50°28' E 000°39'919.6
2017-Apr-26 20:58N 50°26' E 000°24'919.8
2017-Apr-26 20:30N 50°23' E 000°10'1019.9
2017-Apr-26 20:00N 50°21' W 000°05'1019.7
2017-Apr-26 19:31N 50°18' W 000°20'8818.0
2017-Apr-26 14:38N 50°09' W 002°36'215.7
2017-Apr-26 14:28N 50°08' W 002°40'1515.6
2017-Apr-26 13:31N 50°06' W 003°03'815.6
2017-Apr-26 13:00N 50°05' W 003°15'815.6
2017-Apr-26 12:30N 50°04' W 003°27'815.6
2017-Apr-26 12:01N 50°03' W 003°39'815.7
2017-Apr-26 11:30N 50°01' W 003°51'816.1
2017-Apr-26 11:01N 49°60' W 004°03'816.3
2017-Apr-26 10:30N 49°59' W 004°16'816.4
2017-Apr-26 10:01N 49°57' W 004°28'816.5
2017-Apr-26 09:30N 49°55' W 004°41'1016.5
2017-Apr-26 08:55N 49°54' W 004°56'916.5
2017-Apr-26 08:24N 49°53' W 005°09'1717.1
2017-Apr-26 07:25N 49°53' W 005°35'1418.1
2017-Apr-26 06:39N 49°55' W 005°56'215.5
2017-Apr-26 06:30N 49°56' W 005°59'917.8
2017-Apr-26 05:59N 50°05' W 006°00'817.1
2017-Apr-26 05:30N 50°13' W 006°01'916.4
2017-Apr-26 04:57N 50°22' W 006°02'7815.0
2017-Apr-25 23:46N 51°28' W 007°09'615.5
2017-Apr-25 23:23N 51°30' W 007°18'615.7
2017-Apr-25 23:00N 51°33' W 007°27'815.8
2017-Apr-25 22:30N 51°36' W 007°38'815.9
2017-Apr-25 22:00N 51°39' W 007°50'816.1
2017-Apr-25 21:30N 51°42' W 008°02'816.0
2017-Apr-25 21:00N 51°45' W 008°14'611.3
2017-Apr-25 20:30N 51°51' W 008°16'2 4.9
2017-Apr-25 20:00N 51°50' W 008°20'0 0.0
2017-Apr-25 19:30N 51°50' W 008°20'0 0.0
2017-Apr-25 19:00N 51°50' W 008°20'0 0.0
2017-Apr-25 18:30N 51°50' W 008°20'0 0.0
2017-Apr-25 18:00N 51°50' W 008°20'0 0.0
2017-Apr-25 17:30N 51°50' W 008°20'0 0.0
2017-Apr-25 17:00N 51°50' W 008°20'0 0.0
2017-Apr-25 16:30N 51°50' W 008°20'0 0.0
2017-Apr-25 16:00N 51°50' W 008°20'0 0.0
2017-Apr-25 15:30N 51°50' W 008°20'0 0.0
2017-Apr-25 15:00N 51°50' W 008°20'0 0.0
2017-Apr-25 14:00N 51°50' W 008°20'0 0.0
2017-Apr-25 13:30N 51°50' W 008°20'0 0.0
2017-Apr-25 13:00N 51°50' W 008°20'0 0.0
2017-Apr-25 12:30N 51°50' W 008°20'0 0.0
2017-Apr-25 12:00N 51°50' W 008°20'0 0.0
2017-Apr-25 11:30N 51°50' W 008°20'0 0.0
2017-Apr-25 11:00N 51°50' W 008°20'0 0.0
2017-Apr-25 10:30N 51°50' W 008°20'0 0.0
2017-Apr-25 10:00N 51°50' W 008°20'0 0.0
2017-Apr-25 09:30N 51°50' W 008°20'0 0.0
2017-Apr-25 09:00N 51°50' W 008°20'0 0.0
2017-Apr-25 08:27N 51°50' W 008°20'0 0.0
2017-Apr-25 08:00N 51°50' W 008°20'0 0.0
2017-Apr-25 07:30N 51°50' W 008°20'1 1.9
2017-Apr-25 07:00N 51°51' W 008°18'3 5.7
2017-Apr-25 06:30N 51°48' W 008°16'510.3
2017-Apr-25 06:01N 51°45' W 008°10'815.5
2017-Apr-25 05:30N 51°43' W 007°57'714.3
2017-Apr-25 05:01N 51°44' W 007°46'714.4
2017-Apr-25 04:30N 51°44' W 007°34'714.1
2017-Apr-25 04:01N 51°44' W 007°23'714.2
2017-Apr-25 03:30N 51°45' W 007°11'713.2
2017-Apr-25 03:00N 51°47' W 007°01'714.2
2017-Apr-25 02:31N 51°53' W 006°56'611.3
2017-Apr-25 02:00N 51°53' W 006°46'4313.3
2017-Apr-24 22:46N 51°36' W 005°43'313.3
2017-Apr-24 22:30N 51°35' W 005°37'713.7
2017-Apr-24 22:00N 51°33' W 005°27'714.5
2017-Apr-24 21:30N 51°31' W 005°16'815.1
2017-Apr-24 21:00N 51°29' W 005°04'815.8
2017-Apr-24 20:30N 51°27' W 004°52'816.6
2017-Apr-24 20:00N 51°25' W 004°39'816.6
2017-Apr-24 19:30N 51°25' W 004°26'816.1
2017-Apr-24 18:59N 51°24' W 004°12'1315.9
2017-Apr-24 18:11N 51°22' W 003°52'315.7
2017-Apr-24 18:00N 51°22' W 003°48'2014.3
2017-Apr-24 16:38N 51°21' W 003°16'211.8
2017-Apr-24 16:28N 51°21' W 003°13'510.2
2017-Apr-24 16:00N 51°22' W 003°06'612.9
2017-Apr-24 15:30N 51°27' W 002°59'612.6
2017-Apr-24 15:00N 51°29' W 002°49'4 7.2
2017-Apr-24 14:29N 51°30' W 002°44'0 0.5
2017-Apr-24 13:29N 51°30' W 002°43'0 0.0
2017-Apr-24 12:59N 51°30' W 002°43'0 0.0
2017-Apr-24 12:29N 51°30' W 002°43'0 0.0
2017-Apr-24 11:59N 51°30' W 002°43'0 0.0
2017-Apr-24 11:29N 51°30' W 002°43'0 0.0
2017-Apr-24 10:59N 51°30' W 002°43'0 0.0
2017-Apr-24 10:29N 51°30' W 002°43'0 0.0
2017-Apr-24 09:59N 51°30' W 002°43'0 0.0
2017-Apr-24 09:29N 51°30' W 002°43'0 0.0
2017-Apr-24 08:59N 51°30' W 002°43'0 0.0
2017-Apr-24 08:29N 51°30' W 002°43'0 0.0
2017-Apr-24 07:59N 51°30' W 002°43'0 0.0
2017-Apr-24 07:29N 51°30' W 002°43'0 0.0
2017-Apr-24 06:59N 51°30' W 002°43'0 0.0
2017-Apr-24 06:29N 51°30' W 002°43'0 0.0
2017-Apr-24 05:59N 51°30' W 002°43'0 0.0
2017-Apr-24 05:29N 51°30' W 002°43'0 0.0
2017-Apr-24 04:59N 51°30' W 002°43'0 0.0
2017-Apr-24 04:29N 51°30' W 002°43'0 0.0
2017-Apr-24 03:59N 51°30' W 002°43'0 0.0
2017-Apr-24 03:29N 51°30' W 002°43'0 0.0
2017-Apr-24 02:59N 51°30' W 002°43'0 0.0
2017-Apr-24 02:29N 51°30' W 002°43'0 0.0
2017-Apr-24 01:59N 51°30' W 002°43'0 0.0
2017-Apr-24 01:29N 51°30' W 002°43'0 0.0
2017-Apr-24 00:59N 51°30' W 002°43'0 0.0
2017-Apr-24 00:29N 51°30' W 002°43'0 0.0
2017-Apr-23 23:59N 51°30' W 002°43'0 0.0
2017-Apr-23 23:29N 51°30' W 002°43'0 0.0
2017-Apr-23 22:59N 51°30' W 002°43'0 0.0
2017-Apr-23 22:29N 51°30' W 002°43'0 0.0
2017-Apr-23 21:59N 51°30' W 002°43'0 0.0
2017-Apr-23 21:29N 51°30' W 002°43'0 0.0
2017-Apr-23 20:59N 51°30' W 002°43'0 0.0
2017-Apr-23 20:29N 51°30' W 002°43'0 0.0
2017-Apr-23 19:59N 51°30' W 002°43'0 0.0
2017-Apr-23 19:29N 51°30' W 002°43'0 0.0
2017-Apr-23 18:59N 51°30' W 002°43'0 0.0
2017-Apr-23 18:29N 51°30' W 002°43'0 0.1
2017-Apr-23 17:59N 51°30' W 002°43'0 0.1
2017-Apr-23 17:29N 51°30' W 002°43'0 0.0
2017-Apr-23 16:59N 51°30' W 002°43'0 0.0
2017-Apr-23 16:29N 51°30' W 002°43'0 0.0
2017-Apr-23 15:59N 51°30' W 002°43'0 0.0
2017-Apr-23 15:29N 51°30' W 002°43'0 0.2
2017-Apr-23 15:01N 51°30' W 002°43'1 1.2
2017-Apr-23 14:01N 51°30' W 002°45'611.8
2017-Apr-23 13:30N 51°28' W 002°54'918.4
2017-Apr-23 13:00N 51°22' W 003°06'2116.6
2017-Apr-23 11:46N 51°20' W 003°38'815.0
2017-Apr-23 11:16N 51°19' W 003°50'1015.6
2017-Apr-23 10:38N 51°18' W 004°06'215.6
2017-Apr-23 10:30N 51°17' W 004°09'815.7
2017-Apr-23 10:00N 51°16' W 004°22'815.5
2017-Apr-23 09:30N 51°15' W 004°34'715.0
2017-Apr-23 09:00N 51°14' W 004°46'612.6
2017-Apr-23 08:30N 51°11' W 004°54'714.0
2017-Apr-23 08:00N 51°04' W 004°56'714.0
2017-Apr-23 07:30N 50°57' W 004°59'713.6
2017-Apr-23 07:00N 50°50' W 005°02'714.0
2017-Apr-23 06:31N 50°46' W 005°10'714.0
2017-Apr-23 06:00N 50°41' W 005°18'714.0
2017-Apr-23 05:30N 50°36' W 005°26'714.0
2017-Apr-23 05:00N 50°31' W 005°34'714.0
2017-Apr-23 04:30N 50°26' W 005°42'714.2
2017-Apr-23 04:00N 50°22' W 005°51'713.5
2017-Apr-23 03:30N 50°15' W 005°53'714.5
2017-Apr-23 03:00N 50°08' W 005°53'3814.5
2017-Apr-23 00:24N 49°30' W 006°00'2414.8
2017-Apr-22 22:47N 49°08' W 006°14'414.6
2017-Apr-22 22:30N 49°04' W 006°17'814.5
2017-Apr-22 21:58N 48°57' W 006°22'17114.2
2017-Apr-22 09:57N 46°19' W 007°58'614.2
2017-Apr-22 09:31N 46°13' W 008°01'714.5
2017-Apr-22 09:00N 46°07' W 008°05'714.4
2017-Apr-22 08:30N 46°00' W 008°09'714.4
2017-Apr-22 08:01N 45°53' W 008°13'714.1
2017-Apr-22 07:31N 45°47' W 008°17'714.1
2017-Apr-22 07:00N 45°40' W 008°21'714.5
2017-Apr-22 06:30N 45°33' W 008°25'714.7
2017-Apr-22 06:00N 45°27' W 008°29'35114.6
2017-Apr-21 06:00N 39°41' W 009°51'816.9
2017-Apr-21 05:30N 39°33' W 009°51'816.8
2017-Apr-21 05:00N 39°25' W 009°51'816.6
2017-Apr-21 04:30N 39°16' W 009°51'816.5
2017-Apr-21 04:00N 39°08' W 009°51'816.2
2017-Apr-21 03:30N 39°00' W 009°51'816.4
2017-Apr-21 03:00N 38°52' W 009°52'816.3
2017-Apr-21 02:30N 38°44' W 009°52'816.5
2017-Apr-21 02:00N 38°36' W 009°49'816.3
2017-Apr-21 01:30N 38°31' W 009°40'816.7
2017-Apr-21 01:01N 38°27' W 009°31'816.3
2017-Apr-21 00:30N 38°24' W 009°22'816.3
2017-Apr-21 00:01N 38°20' W 009°12'815.9
2017-Apr-20 23:30N 38°23' W 009°03'713.7
2017-Apr-20 23:01N 38°28' W 008°57'4 8.1
2017-Apr-20 22:28N 38°31' W 008°53'0 0.0
2017-Apr-20 21:58N 38°31' W 008°53'0 0.0
2017-Apr-20 21:28N 38°31' W 008°53'0 0.0
2017-Apr-20 20:58N 38°31' W 008°53'0 0.0
2017-Apr-20 20:28N 38°31' W 008°53'0 0.0
2017-Apr-20 19:58N 38°31' W 008°53'0 0.0
2017-Apr-20 19:28N 38°31' W 008°53'0 0.0
2017-Apr-20 18:55N 38°31' W 008°53'0 0.0
2017-Apr-20 18:28N 38°31' W 008°53'0 0.0
2017-Apr-20 17:58N 38°31' W 008°53'0 0.0
2017-Apr-20 17:28N 38°31' W 008°53'0 0.0
2017-Apr-20 16:55N 38°31' W 008°53'0 0.0
2017-Apr-20 16:28N 38°31' W 008°53'0 0.0
2017-Apr-20 15:58N 38°31' W 008°53'0 0.0
2017-Apr-20 15:28N 38°31' W 008°53'0 0.0
2017-Apr-20 15:01N 38°31' W 008°53'7 7.2
2017-Apr-20 14:01N 38°26' W 008°59'4 7.3
2017-Apr-20 13:31N 38°24' W 009°03'611.6
2017-Apr-20 12:59N 38°19' W 009°08'714.1
2017-Apr-20 12:30N 38°12' W 009°09'714.9
2017-Apr-20 12:00N 38°05' W 009°09'714.7
2017-Apr-20 11:30N 37°58' W 009°09'714.7
2017-Apr-20 11:00N 37°50' W 009°09'714.3
2017-Apr-20 10:30N 37°43' W 009°08'815.1
2017-Apr-20 09:58N 37°35' W 009°09'916.8
2017-Apr-20 09:27N 37°27' W 009°12'4313.9
2017-Apr-20 06:23N 36°45' W 009°03'615.9
2017-Apr-20 06:00N 36°43' W 008°56'816.1
2017-Apr-20 05:30N 36°40' W 008°47'  
Track history (hours):
 
Tides and Currents Weather Stations Pressure Air Temp Water Temp Dewpoint Dewpoint Depression Visibility Wind Speed Wind Dir Waves Ship Positions

Grande Europa

Last reported at 2017-Apr-30 03:54 UTC. Time now 2017-Apr-30 16:59 UTC.
Position N 57°23' E 008°39'.

Length 183 m; draft 8.3 m.

Type: Ship (hazmat cat A). MMSI: 247206000.

Date/timePositionNaut miles runAvg speedWind from/ knotsBaromVisibWave heightAir tempDewpointWater temp
2017-Apr-30 03:54N 57°23' E 008°39'816.8
2017-Apr-30 03:26N 57°28' E 008°49'716.8
2017-Apr-30 03:00N 57°34' E 008°58'816.7
2017-Apr-30 02:30N 57°40' E 009°09'816.4
2017-Apr-30 01:59N 57°46' E 009°19'815.9
2017-Apr-30 01:30N 57°52' E 009°30'1016.6
2017-Apr-30 00:55N 57°52' E 009°48'716.8
2017-Apr-30 00:30N 57°52' E 010°01'817.0
2017-Apr-30 00:00N 57°52' E 010°17'816.9
2017-Apr-29 23:30N 57°52' E 010°33'816.7
2017-Apr-29 23:00N 57°52' E 010°49'917.0
2017-Apr-29 22:30N 57°52' E 011°05'817.3
2017-Apr-29 22:00N 57°52' E 011°21'713.7
2017-Apr-29 21:30N 57°54' E 011°33'612.3
2017-Apr-29 21:00N 57°57' E 011°43'3 5.9
2017-Apr-29 20:28N 58°01' E 011°42'0 0.0
2017-Apr-29 18:52N 58°01' E 011°42'0 0.0
2017-Apr-29 18:28N 58°01' E 011°42'0 0.0
2017-Apr-29 16:22N 58°01' E 011°42'0 0.0
2017-Apr-29 15:55N 58°01' E 011°42'0 0.0
2017-Apr-29 15:16N 58°01' E 011°42'0 0.0
2017-Apr-29 14:55N 58°01' E 011°42'0 0.0
2017-Apr-29 13:55N 58°01' E 011°42'0 0.0
2017-Apr-29 12:31N 58°01' E 011°42'0 0.1
2017-Apr-29 12:28N 58°01' E 011°42'0 0.0
2017-Apr-29 11:58N 58°01' E 011°42'0 0.0
2017-Apr-29 11:28N 58°01' E 011°42'0 0.0
2017-Apr-29 10:58N 58°01' E 011°42'0 0.0
2017-Apr-29 10:11N 58°01' E 011°42'0 0.8
2017-Apr-29 10:00N 58°01' E 011°42'3 6.1
2017-Apr-29 09:30N 57°58' E 011°43'4 8.6
2017-Apr-29 09:00N 57°55' E 011°36'713.4
2017-Apr-29 08:30N 57°51' E 011°25'610.9
2017-Apr-29 07:57N 57°51' E 011°14'716.7
2017-Apr-29 07:30N 57°51' E 011°00'917.5
2017-Apr-29 07:00N 57°51' E 010°44'917.5
2017-Apr-29 06:30N 57°50' E 010°28'917.1
2017-Apr-29 05:59N 57°49' E 010°11'14514.6
2017-Apr-28 20:05N 55°59' E 007°17'217.1
2017-Apr-28 19:58N 55°57' E 007°17'817.1
2017-Apr-28 19:30N 55°49' E 007°17'917.2
2017-Apr-28 19:00N 55°41' E 007°17'917.3
2017-Apr-28 18:31N 55°32' E 007°17'815.9
2017-Apr-28 18:00N 55°27' E 007°27'917.8
2017-Apr-28 17:30N 55°23' E 007°41'917.2
2017-Apr-28 17:01N 55°20' E 007°55'816.3
2017-Apr-28 16:30N 55°22' E 008°09'612.6
2017-Apr-28 16:01N 55°27' E 008°17'5 9.7
2017-Apr-28 15:30N 55°28' E 008°25'1 1.4
2017-Apr-28 14:51N 55°28' E 008°27'0 0.0
2017-Apr-28 14:00N 55°28' E 008°27'0 0.0
2017-Apr-28 13:30N 55°28' E 008°27'0 0.0
2017-Apr-28 12:57N 55°28' E 008°27'0 0.0
2017-Apr-28 12:30N 55°28' E 008°27'0 0.0
2017-Apr-28 11:54N 55°28' E 008°27'0 0.0
2017-Apr-28 11:30N 55°28' E 008°27'0 0.0
2017-Apr-28 11:00N 55°28' E 008°27'0 0.0
2017-Apr-28 10:30N 55°28' E 008°27'0 0.0
2017-Apr-28 09:59N 55°28' E 008°27'0 0.0
2017-Apr-28 09:26N 55°28' E 008°27'0 0.0
2017-Apr-28 08:56N 55°28' E 008°27'0 0.0
2017-Apr-28 08:29N 55°28' E 008°27'0 0.0
2017-Apr-28 07:59N 55°28' E 008°27'0 0.0
2017-Apr-28 07:23N 55°28' E 008°27'0 0.0
2017-Apr-28 06:59N 55°28' E 008°27'0 0.0
2017-Apr-28 06:29N 55°28' E 008°27'0 0.0
2017-Apr-28 05:56N 55°28' E 008°27'0 0.0
2017-Apr-28 05:29N 55°28' E 008°27'0 0.0
2017-Apr-28 04:59N 55°28' E 008°27'1 1.2
2017-Apr-28 04:31N 55°27' E 008°26'2 4.9
2017-Apr-28 04:00N 55°29' E 008°23'612.8
2017-Apr-28 03:31N 55°25' E 008°14'611.2
2017-Apr-28 03:00N 55°22' E 008°05'715.0
2017-Apr-28 02:30N 55°17' E 007°55'714.4
2017-Apr-28 02:00N 55°13' E 007°46'815.3
2017-Apr-28 01:30N 55°08' E 007°36'815.2
2017-Apr-28 01:00N 55°03' E 007°26'714.9
2017-Apr-28 00:30N 54°58' E 007°16'714.8
2017-Apr-28 00:00N 54°53' E 007°06'713.5
2017-Apr-27 23:30N 54°49' E 006°56'714.7
2017-Apr-27 23:00N 54°51' E 006°44'610.8
2017-Apr-27 22:29N 54°47' E 006°37'714.0
2017-Apr-27 22:00N 54°40' E 006°35'510.1
2017-Apr-27 21:30N 54°40' E 006°26'815.2
2017-Apr-27 20:59N 54°44' E 006°14'22313.0
2017-Apr-27 03:49N 51°45' E 002°33'614.9
2017-Apr-27 03:23N 51°40' E 002°26'615.2
2017-Apr-27 03:00N 51°36' E 002°20'815.6
2017-Apr-27 02:30N 51°30' E 002°12'815.8
2017-Apr-27 02:00N 51°24' E 002°04'815.6
2017-Apr-27 01:30N 51°18' E 001°56'816.1
2017-Apr-27 01:01N 51°12' E 001°47'816.4
2017-Apr-27 00:30N 51°04' E 001°42'917.2
2017-Apr-27 00:01N 50°58' E 001°32'1019.6
2017-Apr-26 23:31N 50°50' E 001°25'918.7
2017-Apr-26 23:01N 50°41' E 001°18'1918.4
2017-Apr-26 21:58N 50°30' E 000°54'1019.0
2017-Apr-26 21:27N 50°28' E 000°39'919.6
2017-Apr-26 20:58N 50°26' E 000°24'919.8
2017-Apr-26 20:30N 50°23' E 000°10'1019.9
2017-Apr-26 20:00N 50°21' W 000°05'1019.7
2017-Apr-26 19:31N 50°18' W 000°20'8818.0
2017-Apr-26 14:38N 50°09' W 002°36'215.7
2017-Apr-26 14:28N 50°08' W 002°40'1515.6
2017-Apr-26 13:31N 50°06' W 003°03'815.6
2017-Apr-26 13:00N 50°05' W 003°15'815.6
2017-Apr-26 12:30N 50°04' W 003°27'815.6
2017-Apr-26 12:01N 50°03' W 003°39'815.7
2017-Apr-26 11:30N 50°01' W 003°51'816.1
2017-Apr-26 11:01N 49°60' W 004°03'816.3
2017-Apr-26 10:30N 49°59' W 004°16'816.4
2017-Apr-26 10:01N 49°57' W 004°28'816.5
2017-Apr-26 09:30N 49°55' W 004°41'1016.5
2017-Apr-26 08:55N 49°54' W 004°56'916.5
2017-Apr-26 08:24N 49°53' W 005°09'1717.1
2017-Apr-26 07:25N 49°53' W 005°35'1418.1
2017-Apr-26 06:39N 49°55' W 005°56'215.5
2017-Apr-26 06:30N 49°56' W 005°59'917.8
2017-Apr-26 05:59N 50°05' W 006°00'817.1
2017-Apr-26 05:30N 50°13' W 006°01'916.4
2017-Apr-26 04:57N 50°22' W 006°02'7815.0
2017-Apr-25 23:46N 51°28' W 007°09'615.5
2017-Apr-25 23:23N 51°30' W 007°18'615.7
2017-Apr-25 23:00N 51°33' W 007°27'815.8
2017-Apr-25 22:30N 51°36' W 007°38'815.9
2017-Apr-25 22:00N 51°39' W 007°50'816.1
2017-Apr-25 21:30N 51°42' W 008°02'816.0
2017-Apr-25 21:00N 51°45' W 008°14'611.3
2017-Apr-25 20:30N 51°51' W 008°16'2 4.9
2017-Apr-25 20:00N 51°50' W 008°20'0 0.0
2017-Apr-25 19:30N 51°50' W 008°20'0 0.0
2017-Apr-25 19:00N 51°50' W 008°20'0 0.0
2017-Apr-25 18:30N 51°50' W 008°20'0 0.0
2017-Apr-25 18:00N 51°50' W 008°20'0 0.0
2017-Apr-25 17:30N 51°50' W 008°20'0 0.0
2017-Apr-25 17:00N 51°50' W 008°20'0 0.0
2017-Apr-25 16:30N 51°50' W 008°20'0 0.0
2017-Apr-25 16:00N 51°50' W 008°20'0 0.0
2017-Apr-25 15:30N 51°50' W 008°20'0 0.0
2017-Apr-25 15:00N 51°50' W 008°20'0 0.0
2017-Apr-25 14:00N 51°50' W 008°20'0 0.0
2017-Apr-25 13:30N 51°50' W 008°20'0 0.0
2017-Apr-25 13:00N 51°50' W 008°20'0 0.0
2017-Apr-25 12:30N 51°50' W 008°20'0 0.0
2017-Apr-25 12:00N 51°50' W 008°20'0 0.0
2017-Apr-25 11:30N 51°50' W 008°20'0 0.0
2017-Apr-25 11:00N 51°50' W 008°20'0 0.0
2017-Apr-25 10:30N 51°50' W 008°20'0 0.0
2017-Apr-25 10:00N 51°50' W 008°20'0 0.0
2017-Apr-25 09:30N 51°50' W 008°20'0 0.0
2017-Apr-25 09:00N 51°50' W 008°20'0 0.0
2017-Apr-25 08:27N 51°50' W 008°20'0 0.0
2017-Apr-25 08:00N 51°50' W 008°20'0 0.0
2017-Apr-25 07:30N 51°50' W 008°20'1 1.9
2017-Apr-25 07:00N 51°51' W 008°18'3 5.7
2017-Apr-25 06:30N 51°48' W 008°16'510.3
2017-Apr-25 06:01N 51°45' W 008°10'815.5
2017-Apr-25 05:30N 51°43' W 007°57'714.3
2017-Apr-25 05:01N 51°44' W 007°46'714.4
2017-Apr-25 04:30N 51°44' W 007°34'714.1
2017-Apr-25 04:01N 51°44' W 007°23'714.2
2017-Apr-25 03:30N 51°45' W 007°11'713.2
2017-Apr-25 03:00N 51°47' W 007°01'714.2
2017-Apr-25 02:31N 51°53' W 006°56'611.3
2017-Apr-25 02:00N 51°53' W 006°46'4313.3
2017-Apr-24 22:46N 51°36' W 005°43'313.3
2017-Apr-24 22:30N 51°35' W 005°37'713.7
2017-Apr-24 22:00N 51°33' W 005°27'714.5
2017-Apr-24 21:30N 51°31' W 005°16'815.1
2017-Apr-24 21:00N 51°29' W 005°04'815.8
2017-Apr-24 20:30N 51°27' W 004°52'816.6
2017-Apr-24 20:00N 51°25' W 004°39'816.6
2017-Apr-24 19:30N 51°25' W 004°26'816.1
2017-Apr-24 18:59N 51°24' W 004°12'1315.9
2017-Apr-24 18:11N 51°22' W 003°52'315.7
2017-Apr-24 18:00N 51°22' W 003°48'2014.3
2017-Apr-24 16:38N 51°21' W 003°16'211.8
2017-Apr-24 16:28N 51°21' W 003°13'510.2
2017-Apr-24 16:00N 51°22' W 003°06'612.9
2017-Apr-24 15:30N 51°27' W 002°59'612.6
2017-Apr-24 15:00N 51°29' W 002°49'4 7.2
2017-Apr-24 14:29N 51°30' W 002°44'0 0.5
2017-Apr-24 13:29N 51°30' W 002°43'0 0.0
2017-Apr-24 12:59N 51°30' W 002°43'0 0.0
2017-Apr-24 12:29N 51°30' W 002°43'0 0.0
2017-Apr-24 11:59N 51°30' W 002°43'0 0.0
2017-Apr-24 11:29N 51°30' W 002°43'0 0.0
2017-Apr-24 10:59N 51°30' W 002°43'0 0.0
2017-Apr-24 10:29N 51°30' W 002°43'0 0.0
2017-Apr-24 09:59N 51°30' W 002°43'0 0.0
2017-Apr-24 09:29N 51°30' W 002°43'0 0.0
2017-Apr-24 08:59N 51°30' W 002°43'0 0.0
2017-Apr-24 08:29N 51°30' W 002°43'0 0.0
2017-Apr-24 07:59N 51°30' W 002°43'0 0.0
2017-Apr-24 07:29N 51°30' W 002°43'0 0.0
2017-Apr-24 06:59N 51°30' W 002°43'0 0.0
2017-Apr-24 06:29N 51°30' W 002°43'0 0.0
2017-Apr-24 05:59N 51°30' W 002°43'0 0.0
2017-Apr-24 05:29N 51°30' W 002°43'0 0.0
2017-Apr-24 04:59N 51°30' W 002°43'0 0.0
2017-Apr-24 04:29N 51°30' W 002°43'0 0.0
2017-Apr-24 03:59N 51°30' W 002°43'0 0.0
2017-Apr-24 03:29N 51°30' W 002°43'0 0.0
2017-Apr-24 02:59N 51°30' W 002°43'0 0.0
2017-Apr-24 02:29N 51°30' W 002°43'0 0.0
2017-Apr-24 01:59N 51°30' W 002°43'0 0.0
2017-Apr-24 01:29N 51°30' W 002°43'0 0.0
2017-Apr-24 00:59N 51°30' W 002°43'0 0.0
2017-Apr-24 00:29N 51°30' W 002°43'0 0.0
2017-Apr-23 23:59N 51°30' W 002°43'0 0.0
2017-Apr-23 23:29N 51°30' W 002°43'0 0.0
2017-Apr-23 22:59N 51°30' W 002°43'0 0.0
2017-Apr-23 22:29N 51°30' W 002°43'0 0.0
2017-Apr-23 21:59N 51°30' W 002°43'0 0.0
2017-Apr-23 21:29N 51°30' W 002°43'0 0.0
2017-Apr-23 20:59N 51°30' W 002°43'0 0.0
2017-Apr-23 20:29N 51°30' W 002°43'0 0.0
2017-Apr-23 19:59N 51°30' W 002°43'0 0.0
2017-Apr-23 19:29N 51°30' W 002°43'0 0.0
2017-Apr-23 18:59N 51°30' W 002°43'0 0.0
2017-Apr-23 18:29N 51°30' W 002°43'0 0.1
2017-Apr-23 17:59N 51°30' W 002°43'0 0.1
2017-Apr-23 17:29N 51°30' W 002°43'0 0.0
2017-Apr-23 16:59N 51°30' W 002°43'0 0.0
2017-Apr-23 16:29N 51°30' W 002°43'0 0.0
2017-Apr-23 15:59N 51°30' W 002°43'0 0.0
2017-Apr-23 15:29N 51°30' W 002°43'0 0.2
2017-Apr-23 15:01N 51°30' W 002°43'1 1.2
2017-Apr-23 14:01N 51°30' W 002°45'611.8
2017-Apr-23 13:30N 51°28' W 002°54'918.4
2017-Apr-23 13:00N 51°22' W 003°06'2116.6
2017-Apr-23 11:46N 51°20' W 003°38'815.0
2017-Apr-23 11:16N 51°19' W 003°50'1015.6
2017-Apr-23 10:38N 51°18' W 004°06'215.6
2017-Apr-23 10:30N 51°17' W 004°09'815.7
2017-Apr-23 10:00N 51°16' W 004°22'815.5
2017-Apr-23 09:30N 51°15' W 004°34'715.0
2017-Apr-23 09:00N 51°14' W 004°46'612.6
2017-Apr-23 08:30N 51°11' W 004°54'714.0
2017-Apr-23 08:00N 51°04' W 004°56'714.0
2017-Apr-23 07:30N 50°57' W 004°59'713.6
2017-Apr-23 07:00N 50°50' W 005°02'714.0
2017-Apr-23 06:31N 50°46' W 005°10'714.0
2017-Apr-23 06:00N 50°41' W 005°18'714.0
2017-Apr-23 05:30N 50°36' W 005°26'714.0
2017-Apr-23 05:00N 50°31' W 005°34'714.0
2017-Apr-23 04:30N 50°26' W 005°42'714.2
2017-Apr-23 04:00N 50°22' W 005°51'713.5
2017-Apr-23 03:30N 50°15' W 005°53'714.5
2017-Apr-23 03:00N 50°08' W 005°53'3814.5
2017-Apr-23 00:24N 49°30' W 006°00'2414.8
2017-Apr-22 22:47N 49°08' W 006°14'414.6
2017-Apr-22 22:30N 49°04' W 006°17'814.5
2017-Apr-22 21:58N 48°57' W 006°22'17114.2
2017-Apr-22 09:57N 46°19' W 007°58'614.2
2017-Apr-22 09:31N 46°13' W 008°01'714.5
2017-Apr-22 09:00N 46°07' W 008°05'714.4
2017-Apr-22 08:30N 46°00' W 008°09'714.4
2017-Apr-22 08:01N 45°53' W 008°13'714.1
2017-Apr-22 07:31N 45°47' W 008°17'714.1
2017-Apr-22 07:00N 45°40' W 008°21'714.5
2017-Apr-22 06:30N 45°33' W 008°25'714.7
2017-Apr-22 06:00N 45°27' W 008°29'35114.6
2017-Apr-21 06:00N 39°41' W 009°51'816.9
2017-Apr-21 05:30N 39°33' W 009°51'816.8
2017-Apr-21 05:00N 39°25' W 009°51'816.6
2017-Apr-21 04:30N 39°16' W 009°51'816.5
2017-Apr-21 04:00N 39°08' W 009°51'816.2
2017-Apr-21 03:30N 39°00' W 009°51'816.4
2017-Apr-21 03:00N 38°52' W 009°52'816.3
2017-Apr-21 02:30N 38°44' W 009°52'816.5
2017-Apr-21 02:00N 38°36' W 009°49'816.3
2017-Apr-21 01:30N 38°31' W 009°40'816.7
2017-Apr-21 01:01N 38°27' W 009°31'816.3
2017-Apr-21 00:30N 38°24' W 009°22'816.3
2017-Apr-21 00:01N 38°20' W 009°12'815.9
2017-Apr-20 23:30N 38°23' W 009°03'713.7
2017-Apr-20 23:01N 38°28' W 008°57'4 8.1
2017-Apr-20 22:28N 38°31' W 008°53'0 0.0
2017-Apr-20 21:58N 38°31' W 008°53'0 0.0
2017-Apr-20 21:28N 38°31' W 008°53'0 0.0
2017-Apr-20 20:58N 38°31' W 008°53'0 0.0
2017-Apr-20 20:28N 38°31' W 008°53'0 0.0
2017-Apr-20 19:58N 38°31' W 008°53'0 0.0
2017-Apr-20 19:28N 38°31' W 008°53'0 0.0
2017-Apr-20 18:55N 38°31' W 008°53'0 0.0
2017-Apr-20 18:28N 38°31' W 008°53'0 0.0
2017-Apr-20 17:58N 38°31' W 008°53'0 0.0
2017-Apr-20 17:28N 38°31' W 008°53'0 0.0
2017-Apr-20 16:55N 38°31' W 008°53'0 0.0
2017-Apr-20 16:28N 38°31' W 008°53'0 0.0
2017-Apr-20 15:58N 38°31' W 008°53'0 0.0
2017-Apr-20 15:28N 38°31' W 008°53'0 0.0
2017-Apr-20 15:01N 38°31' W 008°53'7 7.2
2017-Apr-20 14:01N 38°26' W 008°59'4 7.3
2017-Apr-20 13:31N 38°24' W 009°03'611.6
2017-Apr-20 12:59N 38°19' W 009°08'714.1
2017-Apr-20 12:30N 38°12' W 009°09'714.9
2017-Apr-20 12:00N 38°05' W 009°09'714.7
2017-Apr-20 11:30N 37°58' W 009°09'714.7
2017-Apr-20 11:00N 37°50' W 009°09'714.3
2017-Apr-20 10:30N 37°43' W 009°08'815.1
2017-Apr-20 09:58N 37°35' W 009°09'916.8
2017-Apr-20 09:27N 37°27' W 009°12'4313.9
2017-Apr-20 06:23N 36°45' W 009°03'615.9
2017-Apr-20 06:00N 36°43' W 008°56'816.1
2017-Apr-20 05:30N 36°40' W 008°47'  

Dump ship's entire track history